Reading, MN (56165)

8:53 PM CST on January 16, 2017 (GMT -0600)
2317 BioTech Dr | | Change Station
Active Advisory: Winter Weather Advisory

Elev 1572 ft 43.64 °N, 95.59 °W | Updated 8 seconds ago

Overcast
Overcast
32.5 °F
Feels Like 25 °F
N
8.7
Wind Variable Wind from NNE
Gusts 10.1 mph

Today
High -- | Low -- °F
--% Chance of Precip.
Yesterday
High -- | Low -- °F
Precip. -- in
Pressure 30.02 in
Visibility 4.0 miles
Clouds Overcast 300 ft
Windchill 25 °F
Dew Point 28 °F
Humidity 82%
Rainfall 0.00 in
Snow Depth Not available.
7:52 AM 5:13 PM
Waning Gibbous, 76% visible
METAR KOTG 170156Z AUTO 01008KT 4SM -SN BR OVC003 M01/M02 A2995 RMK AO2 UPE10SNB10 SLP166 P0003 T10061017 FZRANO
Pressure 30.02 in
Visibility 4.0 miles
Clouds Overcast 300 ft
Windchill 25 °F
Dew Point 28 °F
Humidity 82%
Rainfall 0.00 in
Snow Depth Not available.
7:52 AM 5:13 PM
Waning Gibbous, 76% visible
METAR KOTG 170156Z AUTO 01008KT 4SM -SN BR OVC003 M01/M02 A2995 RMK AO2 UPE10SNB10 SLP166 P0003 T10061017 FZRANO

Get Your Daily Forecast Email!

Thanks for signing up!

Be on the lookout for a verification email in your inbox.

You'll start receiving the daily forecast at 8 AM.

×

10-Day Weather Forecast

Almanac

Astronomy

Jan. 16, 2017 Rise Set
Actual Time
Civil Twilight
Nautical Twilight
Astronomical Twilight
Moon
Length of Visible Light
Length of Day
Tomorrow will be .
, % of the Moon is Illuminated

Today's Extremes

State Highs State Lows

Community

WunderPhotos

Upload Photos

1,962,540 photos uploaded!

WunderBlog® & News

Nearby

Air Quality

  Air Quality AQ Index Pollutant
Not available.

Snow Depth

Station Depth Elevation

Earthquake Activity

City Distance Mag. Time & Date
Minimum magnitude displayed is 2.5.

Coastal Water Temperatures

Place Temperature

Stations

Nearby Weather Stations

Station Location Temp. Windchill Dew Point Humidity Wind Precip. Elev Updated Type
                   

Watches & Warnings

Winter Weather Advisory
Issued: 8:04 PM CST Jan. 16, 2017 – National Weather Service

... Winter Weather Advisory remains in effect until midnight CST
tonight...

* timing... light freezing rain and freezing drizzle will mix with
light sleet or light snow late this evening.

* Accumulations... total ice accumulations will range from a
light glaze to a tenth of an inch... followed by an inch or
less of snowfall.

Precautionary/preparedness actions...

A Winter Weather Advisory means that periods of snow... sleet... or
freezing rain will cause travel difficulties. Be prepared for
slippery roads and limited visibilities... and use caution while
driving.